Terminal Aerodrome Forecast
Issued by NWS

Home | Current Version | Previous Version | Graphics & Text | Print | Product List | Glossary On
Versions: 1 2 3 4 5 6 7 8 9 10 11 12 13 14 15 16
000
FTUS43 KMPX 020520
TAFAXN
TAF
KAXN 020520Z 0206/0306 20003KT P6SM SCT250
     FM021500 21010KT P6SM SCT250
     FM021900 20013G18KT P6SM SCT150
     FM030100 19007KT P6SM BKN150=

USA.gov is the U.S. government's official web portal to all federal, state and local government web resources and services.